Time;durP1;ratioP1;P1;durP2;ratioP2;P2;SDS_P1;SDS_P2;PMS_P1;PMS_P2;Temp;Humidity;BMP_temperature;BMP_pressure;BME280_temperature;BME280_humidity;BME280_pressure;Samples;Min_cycle;Max_cycle;Signal;HPM_P1;HPM_P2
2023/11/30 05:02:09;;;;;;;7.90;4.65;;;-0.80;99.90;;;;;;5261887;22;20241;-74
2023/11/30 05:04:37;;;;;;;5.18;3.97;;;-0.80;99.90;;;;;;5030486;28;20238;-74
2023/11/30 05:07:03;;;;;;;11.65;7.40;;;-0.90;99.90;;;;;;5029223;28;20991;-73
2023/11/30 05:09:30;;;;;;;6.55;4.45;;;-0.90;99.90;;;;;;5030997;28;20221;-74
2023/11/30 05:11:57;;;;;;;3.80;2.75;;;-0.90;99.90;;;;;;5038515;28;20226;-73
2023/11/30 05:14:24;;;;;;;4.82;4.15;;;-0.90;99.90;;;;;;5032703;28;20206;-74
2023/11/30 05:16:50;;;;;;;4.82;4.03;;;-0.90;99.90;;;;;;5036153;28;20291;-74
2023/11/30 05:19:18;;;;;;;3.50;2.60;;;-0.90;99.90;;;;;;5040098;28;20233;-74
2023/11/30 05:21:45;;;;;;;7.78;4.05;;;-0.90;99.90;;;;;;5035971;28;20222;-73
2023/11/30 05:24:12;;;;;;;5.07;3.42;;;-0.90;99.90;;;;;;5032022;28;20202;-74
2023/11/30 05:26:38;;;;;;;5.68;4.28;;;-0.90;99.90;;;;;;5037540;28;20212;-73
2023/11/30 05:29:05;;;;;;;6.50;4.13;;;-0.80;99.90;;;;;;5031111;28;20214;-73
2023/11/30 05:31:32;;;;;;;6.75;4.32;;;-0.80;99.90;;;;;;5037436;28;20222;-74
2023/11/30 05:33:58;;;;;;;7.07;3.75;;;-0.80;99.90;;;;;;5033129;28;20207;-73
2023/11/30 05:36:27;;;;;;;5.45;5.05;;;-0.80;99.90;;;;;;5029202;28;20579;-73
2023/11/30 05:38:53;;;;;;;7.93;3.90;;;-0.80;99.90;;;;;;5030905;28;20489;-72
2023/11/30 05:41:20;;;;;;;5.35;4.85;;;-0.80;99.90;;;;;;5032183;28;20674;-73
2023/11/30 05:43:46;;;;;;;5.00;3.95;;;-0.70;99.90;;;;;;5031916;28;20213;-73
2023/11/30 05:46:12;;;;;;;7.17;4.70;;;-0.70;99.90;;;;;;5027659;28;20203;-72
2023/11/30 05:48:39;;;;;;;5.93;4.88;;;-0.70;99.90;;;;;;5031199;28;20214;-72
2023/11/30 05:51:06;;;;;;;4.32;3.92;;;-0.70;99.90;;;;;;5027988;28;20324;-72
2023/11/30 05:53:35;;;;;;;3.75;3.45;;;-0.70;99.90;;;;;;5029766;28;20695;-72
2023/11/30 05:56:02;;;;;;;4.35;3.42;;;-0.60;99.90;;;;;;5029188;28;20233;-72
2023/11/30 05:58:29;;;;;;;3.13;2.90;;;-0.60;99.90;;;;;;5031396;28;20722;-72
2023/11/30 06:00:57;;;;;;;5.30;3.92;;;-0.60;99.90;;;;;;5029758;28;20241;-72
2023/11/30 06:03:23;;;;;;;4.45;3.00;;;-0.70;99.90;;;;;;5031440;28;20209;-72
2023/11/30 06:05:50;;;;;;;3.58;3.05;;;-0.80;99.90;;;;;;5030434;28;20230;-72
2023/11/30 06:08:17;;;;;;;4.15;3.83;;;-0.80;99.90;;;;;;5030680;28;20202;-72
2023/11/30 06:10:45;;;;;;;5.00;3.55;;;-0.90;99.90;;;;;;5031812;28;20222;-72
2023/11/30 06:13:12;;;;;;;6.70;3.42;;;-0.90;99.90;;;;;;5030860;28;20296;-71
2023/11/30 06:15:40;;;;;;;3.58;3.15;;;-0.90;99.90;;;;;;5028956;28;20203;-72
2023/11/30 06:18:07;;;;;;;4.60;3.88;;;-0.90;99.90;;;;;;5026894;28;20345;-71
2023/11/30 06:20:33;;;;;;;3.25;2.70;;;-0.90;99.90;;;;;;5030069;28;20746;-71
2023/11/30 06:23:00;;;;;;;5.07;4.55;;;-0.90;99.90;;;;;;5030577;28;20202;-71
2023/11/30 06:25:27;;;;;;;6.85;3.60;;;-0.90;99.90;;;;;;5028657;28;20218;-71
2023/11/30 06:27:55;;;;;;;4.00;3.60;;;-0.90;99.90;;;;;;5030566;28;20195;-71
2023/11/30 06:30:21;;;;;;;4.45;3.92;;;-1.00;99.90;;;;;;5029717;28;20210;-71
2023/11/30 06:32:48;;;;;;;4.47;4.18;;;-1.00;99.90;;;;;;5029880;28;20198;-71
2023/11/30 06:35:15;;;;;;;3.13;2.90;;;-1.00;99.90;;;;;;5026712;28;20237;-71
2023/11/30 06:37:41;;;;;;;2.95;2.80;;;-1.00;99.90;;;;;;5026138;28;20696;-71
2023/11/30 06:40:10;;;;;;;2.58;2.33;;;-1.00;99.90;;;;;;5026974;28;20217;-71
2023/11/30 06:42:36;;;;;;;2.13;1.92;;;-1.00;99.90;;;;;;5028806;28;20222;-71
2023/11/30 06:45:05;;;;;;;4.80;3.90;;;-1.00;99.90;;;;;;5029361;28;20649;-71
2023/11/30 06:47:32;;;;;;;4.05;2.65;;;-0.90;99.90;;;;;;5027768;28;20657;-71
2023/11/30 06:49:59;;;;;;;5.53;3.38;;;-0.90;99.90;;;;;;5028964;28;20206;-71
2023/11/30 06:52:26;;;;;;;7.82;4.68;;;-0.90;99.90;;;;;;5027461;28;20227;-71
2023/11/30 06:54:53;;;;;;;5.20;3.92;;;-0.90;99.90;;;;;;5028734;28;20202;-71
2023/11/30 06:57:20;;;;;;;3.40;3.10;;;-0.90;99.90;;;;;;5023935;28;20226;-71
2023/11/30 06:59:46;;;;;;;5.30;4.80;;;-0.90;99.90;;;;;;5024545;28;20206;-70
2023/11/30 07:02:14;;;;;;;6.40;3.03;;;-0.90;99.90;;;;;;5020375;28;20708;-70
2023/11/30 07:04:41;;;;;;;7.97;5.88;;;-0.80;99.90;;;;;;5028651;28;20202;-70
2023/11/30 07:07:08;;;;;;;10.38;4.47;;;-0.80;99.90;;;;;;5022840;28;20271;-70
2023/11/30 07:09:35;;;;;;;4.78;4.35;;;-0.70;99.90;;;;;;5024330;28;20215;-70
2023/11/30 07:12:02;;;;;;;5.80;5.25;;;-0.70;99.90;;;;;;5026791;28;20226;-69
2023/11/30 07:14:29;;;;;;;3.47;3.17;;;-0.70;99.90;;;;;;5025225;28;20304;-69
2023/11/30 07:16:56;;;;;;;9.60;6.10;;;-0.60;99.90;;;;;;5025619;28;20203;-70
2023/11/30 07:19:24;;;;;;;6.53;4.75;;;-0.60;99.90;;;;;;5029434;28;20568;-70
2023/11/30 07:21:50;;;;;;;5.97;3.97;;;-0.50;99.90;;;;;;5030136;28;20249;-72
2023/11/30 07:24:17;;;;;;;4.38;3.97;;;-0.50;99.90;;;;;;5029316;28;20217;-72
2023/11/30 07:26:47;;;;;;;7.00;5.82;;;-0.50;99.90;;;;;;5023484;28;20213;-72
2023/11/30 07:29:14;;;;;;;9.85;5.32;;;-0.50;99.90;;;;;;5021989;28;20294;-72
2023/11/30 07:31:43;;;;;;;10.02;4.97;;;-0.40;99.90;;;;;;5025978;28;21038;-72
2023/11/30 07:34:09;;;;;;;10.57;9.32;;;-0.40;99.90;;;;;;5029606;28;20656;-70
2023/11/30 07:36:37;;;;;;;6.15;5.60;;;-0.40;99.90;;;;;;5028406;28;20229;-73
2023/11/30 07:39:04;;;;;;;5.05;3.67;;;-0.30;99.90;;;;;;5029259;28;20226;-73
2023/11/30 07:41:31;;;;;;;6.97;5.78;;;-0.30;99.90;;;;;;5022238;28;20257;-73
2023/11/30 07:43:58;;;;;;;10.65;6.93;;;-0.20;99.90;;;;;;5027766;28;20325;-72
2023/11/30 07:46:25;;;;;;;8.40;6.60;;;-0.20;99.90;;;;;;5025868;28;20198;-73
2023/11/30 07:48:51;;;;;;;11.05;7.20;;;-0.20;99.90;;;;;;5024428;28;20589;-72
2023/11/30 07:51:19;;;;;;;8.73;7.68;;;-0.10;99.90;;;;;;5020647;28;20234;-73
2023/11/30 07:53:47;;;;;;;11.85;7.40;;;-0.10;99.90;;;;;;5031166;28;20208;-72
2023/11/30 07:56:14;;;;;;;7.20;6.25;;;-0.10;99.90;;;;;;5027723;28;20205;-72
2023/11/30 07:58:41;;;;;;;10.30;5.22;;;-0.10;99.90;;;;;;5029969;28;20226;-72
2023/11/30 08:01:08;;;;;;;8.02;5.82;;;0.00;99.90;;;;;;5032621;28;20704;-72
2023/11/30 08:03:35;;;;;;;11.50;7.30;;;0.00;99.90;;;;;;5028032;28;20202;-73
2023/11/30 08:06:02;;;;;;;7.60;6.80;;;0.00;99.90;;;;;;5031297;28;20203;-72
2023/11/30 08:08:29;;;;;;;7.22;6.30;;;0.00;99.90;;;;;;5029633;28;20260;-73
2023/11/30 08:10:57;;;;;;;11.15;5.35;;;0.00;99.90;;;;;;5031332;28;20233;-72
2023/11/30 08:13:24;;;;;;;10.52;5.90;;;0.00;99.90;;;;;;5031602;28;20618;-72
2023/11/30 08:15:51;;;;;;;5.68;4.85;;;0.00;99.90;;;;;;5032743;28;20203;-72
2023/11/30 08:18:18;;;;;;;8.02;6.07;;;0.10;99.90;;;;;;5031718;28;20653;-72
2023/11/30 08:20:45;;;;;;;18.02;11.77;;;0.10;99.90;;;;;;5029854;28;20333;-72
2023/11/30 08:23:12;;;;;;;11.88;6.93;;;0.10;99.90;;;;;;5031497;28;20585;-72
2023/11/30 08:25:39;;;;;;;9.93;6.57;;;0.10;99.90;;;;;;5030060;28;20245;-73
2023/11/30 08:28:08;;;;;;;5.07;1.92;;;0.00;99.90;;;;;;5027715;28;20211;-74
2023/11/30 08:30:36;;;;;;;7.13;4.43;;;-0.10;99.90;;;;;;5030276;28;20708;-73
2023/11/30 08:33:04;;;;;;;9.93;8.77;;;-0.10;99.90;;;;;;5028901;28;20256;-73
2023/11/30 08:35:31;;;;;;;10.60;9.65;;;-0.10;99.90;;;;;;5031783;28;20206;-72
2023/11/30 08:37:58;;;;;;;12.65;8.63;;;0.00;99.90;;;;;;5030390;28;20238;-72
2023/11/30 08:40:24;;;;;;;6.65;6.00;;;0.10;99.90;;;;;;5026948;28;20210;-73
2023/11/30 08:42:51;;;;;;;8.25;7.25;;;0.10;99.90;;;;;;5025235;28;20567;-73
2023/11/30 08:45:19;;;;;;;6.20;5.63;;;0.10;99.90;;;;;;5031339;28;20210;-73
2023/11/30 08:47:46;;;;;;;10.77;7.90;;;0.10;99.90;;;;;;5029878;28;20572;-73
2023/11/30 08:50:14;;;;;;;11.13;7.60;;;0.10;99.90;;;;;;5031253;28;20207;-72
2023/11/30 08:52:41;;;;;;;3.78;3.53;;;0.10;99.90;;;;;;5032073;28;21032;-72
2023/11/30 08:55:08;;;;;;;17.67;10.77;;;0.10;99.90;;;;;;5031632;28;20211;-72
2023/11/30 08:57:34;;;;;;;10.50;9.10;;;0.10;99.90;;;;;;5030495;28;20209;-71
2023/11/30 09:00:05;;;;;;;8.75;6.18;;;0.10;99.90;;;;;;5032091;28;20527;-71
2023/11/30 09:02:36;;;;;;;7.22;5.20;;;0.10;99.90;;;;;;5030233;28;20239;-71
2023/11/30 09:05:02;;;;;;;5.35;3.85;;;0.10;99.90;;;;;;5030500;28;20234;-71
2023/11/30 09:07:30;;;;;;;4.25;3.25;;;0.20;99.90;;;;;;5030754;28;20234;-71
2023/11/30 09:09:57;;;;;;;7.68;5.18;;;0.20;99.90;;;;;;5026047;28;20549;-71
2023/11/30 09:12:23;;;;;;;6.35;4.90;;;0.10;99.90;;;;;;5021788;28;20318;-71
2023/11/30 09:14:50;;;;;;;8.15;6.60;;;0.20;99.90;;;;;;5026752;28;20206;-71
2023/11/30 09:17:17;;;;;;;9.35;7.05;;;0.20;99.90;;;;;;5031258;28;20207;-71
2023/11/30 09:19:46;;;;;;;12.13;8.13;;;0.20;99.90;;;;;;5029533;28;20230;-70
2023/11/30 09:22:12;;;;;;;6.50;5.72;;;0.10;99.90;;;;;;5030439;28;20329;-70
2023/11/30 09:24:39;;;;;;;8.68;6.70;;;0.10;99.90;;;;;;5030399;28;20206;-70
2023/11/30 09:27:06;;;;;;;8.95;8.05;;;0.20;99.90;;;;;;5030720;28;20657;-71
2023/11/30 09:29:36;;;;;;;5.78;4.97;;;0.20;99.90;;;;;;5027113;28;20289;-71
2023/11/30 09:32:03;;;;;;;7.28;4.75;;;0.30;99.90;;;;;;5031053;28;20740;-71
2023/11/30 09:34:30;;;;;;;5.57;5.03;;;0.30;99.90;;;;;;5028739;28;20329;-71
2023/11/30 09:36:58;;;;;;;5.75;4.35;;;0.30;99.90;;;;;;5030399;28;20326;-71
2023/11/30 09:39:25;;;;;;;7.70;4.25;;;0.20;99.90;;;;;;5028732;28;20312;-71
2023/11/30 09:41:52;;;;;;;8.93;4.43;;;0.30;99.90;;;;;;5028538;28;20219;-71
2023/11/30 09:44:19;;;;;;;8.02;4.78;;;0.20;99.90;;;;;;5028401;28;21939;-70
2023/11/30 09:46:46;;;;;;;5.07;4.50;;;0.30;99.90;;;;;;5029956;28;20199;-71
2023/11/30 09:49:13;;;;;;;9.57;4.70;;;0.30;99.90;;;;;;5031366;28;20213;-70
2023/11/30 09:51:43;;;;;;;7.03;5.40;;;0.30;99.90;;;;;;5029194;28;20235;-70
2023/11/30 09:54:12;;;;;;;6.72;5.20;;;0.30;99.90;;;;;;5030177;28;20320;-70
2023/11/30 09:56:40;;;;;;;8.48;4.43;;;0.10;99.90;;;;;;5028597;28;20361;-70
2023/11/30 09:59:07;;;;;;;6.88;5.30;;;0.10;99.90;;;;;;5027336;28;20230;-69
2023/11/30 10:01:34;;;;;;;9.45;5.80;;;0.10;99.90;;;;;;5029114;28;20245;-70
2023/11/30 10:04:11;;;;;;;6.80;5.75;;;0.10;99.90;;;;;;5030408;28;20329;-70
2023/11/30 10:06:38;;;;;;;10.82;6.65;;;0.20;99.90;;;;;;5027183;28;20684;-70
2023/11/30 10:09:05;;;;;;;10.25;5.22;;;0.30;99.90;;;;;;5030190;28;20301;-70
2023/11/30 10:11:33;;;;;;;11.35;7.95;;;0.30;99.90;;;;;;5026650;28;20223;-70
2023/11/30 10:14:00;;;;;;;19.02;9.57;;;0.30;99.90;;;;;;5026707;28;20221;-71
2023/11/30 10:16:27;;;;;;;6.75;6.13;;;0.40;99.90;;;;;;5026320;28;20305;-71
2023/11/30 10:18:54;;;;;;;9.65;6.40;;;0.40;99.90;;;;;;5027798;28;20222;-71
2023/11/30 10:21:22;;;;;;;9.00;7.43;;;0.40;99.90;;;;;;5027154;28;20670;-70
2023/11/30 10:23:49;;;;;;;10.60;7.50;;;0.40;99.90;;;;;;5028966;28;20561;-70
2023/11/30 10:26:17;;;;;;;15.10;7.13;;;0.40;99.90;;;;;;5029573;28;20213;-70
2023/11/30 10:28:45;;;;;;;9.40;5.45;;;0.40;99.90;;;;;;5029008;28;20940;-71
2023/11/30 10:31:15;;;;;;;10.80;6.68;;;0.40;99.90;;;;;;5026757;28;20238;-69
2023/11/30 10:33:43;;;;;;;21.85;12.35;;;0.50;99.90;;;;;;5029277;28;20210;-69
2023/11/30 10:36:11;;;;;;;10.07;6.95;;;0.40;99.90;;;;;;5026769;28;20282;-70
2023/11/30 10:38:41;;;;;;;13.73;8.63;;;0.50;99.90;;;;;;5028836;28;20713;-70
2023/11/30 10:41:13;;;;;;;6.13;4.38;;;0.50;99.90;;;;;;5026387;28;20231;-69
2023/11/30 10:43:48;;;;;;;6.75;5.03;;;0.50;99.90;;;;;;5028057;28;20203;-69
2023/11/30 10:46:16;;;;;;;17.52;7.97;;;0.50;99.90;;;;;;5026956;28;20214;-68
2023/11/30 10:48:42;;;;;;;8.23;5.20;;;0.50;99.90;;;;;;5029746;28;20226;-69
2023/11/30 10:51:11;;;;;;;8.05;4.65;;;0.50;99.90;;;;;;5025442;28;20226;-69
2023/11/30 10:53:45;;;;;;;7.57;5.32;;;0.50;99.90;;;;;;5029724;28;20754;-69
2023/11/30 10:56:14;;;;;;;9.52;5.40;;;0.50;99.90;;;;;;5022440;28;20212;-68
2023/11/30 10:58:43;;;;;;;7.43;6.68;;;0.50;99.90;;;;;;5034048;28;20318;-69
2023/11/30 11:01:13;;;;;;;8.45;6.45;;;0.50;99.90;;;;;;5030760;28;20263;-69
2023/11/30 11:03:45;;;;;;;7.40;5.05;;;0.60;99.90;;;;;;5030953;28;20291;-69
2023/11/30 11:06:14;;;;;;;6.07;4.45;;;0.50;99.90;;;;;;5025359;28;20534;-69
2023/11/30 11:08:56;;;;;;;11.20;7.40;;;0.60;99.90;;;;;;5024839;28;20253;-69
2023/11/30 11:11:24;;;;;;;15.82;5.47;;;0.60;99.90;;;;;;5022814;28;20226;-69
2023/11/30 11:13:51;;;;;;;6.70;5.82;;;0.60;99.90;;;;;;5026710;28;20203;-69
2023/11/30 11:16:19;;;;;;;5.53;4.68;;;0.60;99.90;;;;;;5027368;28;20570;-68
2023/11/30 11:18:46;;;;;;;5.40;3.20;;;0.60;99.90;;;;;;5030447;28;20266;-68
2023/11/30 11:21:26;;;;;;;6.50;4.10;;;0.60;99.90;;;;;;5024720;28;20222;-68
2023/11/30 11:23:53;;;;;;;6.35;5.65;;;0.60;99.90;;;;;;5028491;28;20210;-68
2023/11/30 11:26:20;;;;;;;6.70;5.65;;;0.60;99.90;;;;;;5022622;28;20206;-69
2023/11/30 11:28:46;;;;;;;10.40;5.82;;;0.60;99.90;;;;;;5017902;28;20214;-69
2023/11/30 11:31:14;;;;;;;9.75;5.65;;;0.60;99.90;;;;;;5026871;28;20237;-68
2023/11/30 11:33:42;;;;;;;3.95;3.47;;;0.60;99.90;;;;;;5021096;28;20274;-69
2023/11/30 11:36:11;;;;;;;5.50;3.75;;;0.60;99.90;;;;;;5026892;28;20210;-68
2023/11/30 11:38:38;;;;;;;5.97;5.18;;;0.60;99.90;;;;;;5029277;28;20210;-69
2023/11/30 11:41:06;;;;;;;7.68;5.43;;;0.60;99.90;;;;;;5026648;28;20227;-68
2023/11/30 11:43:33;;;;;;;5.80;4.13;;;0.60;99.90;;;;;;5027665;28;20234;-69
2023/11/30 11:45:59;;;;;;;8.38;5.75;;;0.60;99.90;;;;;;5020897;28;20657;-70
2023/11/30 11:48:26;;;;;;;6.85;5.38;;;0.60;99.90;;;;;;5028129;28;20214;-70
2023/11/30 11:51:00;;;;;;;7.63;6.35;;;0.60;99.90;;;;;;5032698;28;20226;-70
2023/11/30 11:53:27;;;;;;;13.00;6.65;;;0.70;99.90;;;;;;5029774;28;20217;-71
2023/11/30 11:56:01;;;;;;;7.78;5.80;;;0.60;99.90;;;;;;5029575;28;20553;-71
2023/11/30 11:58:29;;;;;;;42.75;19.52;;;0.70;99.90;;;;;;5029415;28;20225;-71
2023/11/30 12:00:56;;;;;;;26.27;13.73;;;0.60;99.90;;;;;;5037330;28;20691;-71
2023/11/30 12:03:23;;;;;;;9.70;6.35;;;0.60;99.90;;;;;;5029008;28;20203;-71
2023/11/30 12:05:51;;;;;;;5.95;5.28;;;0.60;99.90;;;;;;5029113;28;20298;-71
2023/11/30 12:08:28;;;;;;;3.90;2.85;;;0.70;99.90;;;;;;5022213;28;20230;-71
2023/11/30 12:10:55;;;;;;;6.15;3.88;;;0.70;99.90;;;;;;5027325;28;20615;-71
2023/11/30 12:13:23;;;;;;;12.75;7.90;;;0.70;99.90;;;;;;5018600;28;20563;-71
2023/11/30 12:15:50;;;;;;;9.90;7.72;;;0.70;99.90;;;;;;5027326;28;20225;-71
2023/11/30 12:18:17;;;;;;;5.20;4.15;;;0.70;99.90;;;;;;5023392;28;20215;-71
2023/11/30 12:20:44;;;;;;;6.00;4.95;;;0.70;99.90;;;;;;5029335;28;20256;-71
2023/11/30 12:23:12;;;;;;;7.82;5.68;;;0.70;99.90;;;;;;5022155;28;20211;-71
2023/11/30 12:25:40;;;;;;;6.03;4.13;;;0.70;99.90;;;;;;5029361;28;20213;-71
2023/11/30 12:28:13;;;;;;;5.55;4.38;;;0.70;99.90;;;;;;5034427;28;20210;-71
2023/11/30 12:33:30;;;;;;;5.63;4.82;;;0.70;99.90;;;;;;5025289;28;20577;-71
2023/11/30 12:35:59;;;;;;;6.85;5.75;;;0.70;99.90;;;;;;5023124;28;20576;-71
2023/11/30 12:38:31;;;;;;;8.68;5.85;;;0.70;99.90;;;;;;5028214;28;20211;-71
2023/11/30 12:41:05;;;;;;;5.95;3.63;;;0.70;99.90;;;;;;5030874;28;20700;-72
2023/11/30 12:43:32;;;;;;;4.90;4.50;;;0.80;99.90;;;;;;5034225;28;20634;-71
2023/11/30 12:46:04;;;;;;;9.15;6.88;;;0.90;99.90;;;;;;5033869;28;20293;-71
2023/11/30 12:48:30;;;;;;;5.97;5.45;;;0.80;99.90;;;;;;5030244;28;20214;-72
2023/11/30 12:50:57;;;;;;;6.97;4.22;;;0.80;99.90;;;;;;5029800;28;20401;-71
2023/11/30 12:53:24;;;;;;;7.00;4.45;;;0.80;99.90;;;;;;5029547;28;20226;-72
2023/11/30 12:55:51;;;;;;;15.25;7.55;;;0.80;99.90;;;;;;5027239;28;20676;-71
2023/11/30 12:58:19;;;;;;;5.93;4.53;;;0.80;99.90;;;;;;5025616;28;20199;-71
2023/11/30 13:00:46;;;;;;;7.20;5.93;;;0.80;99.90;;;;;;5027609;28;20245;-72
2023/11/30 13:03:13;;;;;;;6.40;3.50;;;0.70;99.90;;;;;;5026137;28;20209;-72
2023/11/30 13:05:40;;;;;;;4.78;3.50;;;0.70;99.90;;;;;;5021900;28;20207;-72
2023/11/30 13:08:06;;;;;;;6.82;3.80;;;0.50;99.90;;;;;;5014659;28;20204;-72
2023/11/30 13:10:33;;;;;;;3.55;2.97;;;0.40;99.90;;;;;;5020219;28;20349;-72
2023/11/30 13:13:00;;;;;;;6.25;4.38;;;0.30;99.90;;;;;;5030118;28;20224;-71
2023/11/30 13:15:28;;;;;;;5.50;3.15;;;0.30;99.90;;;;;;5030770;28;20617;-71
2023/11/30 13:17:55;;;;;;;1.77;1.67;;;0.30;99.90;;;;;;5029756;28;20203;-72
2023/11/30 13:20:22;;;;;;;4.88;3.90;;;0.10;99.90;;;;;;5026504;28;20553;-71
2023/11/30 13:22:48;;;;;;;5.90;4.40;;;0.10;99.90;;;;;;5030401;28;20210;-72
2023/11/30 13:25:15;;;;;;;6.28;4.88;;;0.20;99.90;;;;;;5020096;28;20220;-72
2023/11/30 13:27:45;;;;;;;8.38;5.43;;;0.30;99.90;;;;;;5024254;28;20211;-72
2023/11/30 13:30:12;;;;;;;6.30;4.40;;;0.40;99.90;;;;;;5020092;28;20294;-71
2023/11/30 13:32:41;;;;;;;11.13;7.07;;;0.40;99.90;;;;;;5028185;28;20290;-72
2023/11/30 13:35:09;;;;;;;6.38;5.78;;;0.50;99.90;;;;;;5023445;28;20223;-72
2023/11/30 13:37:36;;;;;;;8.30;6.15;;;0.50;99.90;;;;;;5024888;28;20318;-72
2023/11/30 13:40:05;;;;;;;6.05;5.00;;;0.50;99.90;;;;;;5020755;28;20574;-71
2023/11/30 13:42:32;;;;;;;7.82;3.80;;;0.40;99.90;;;;;;5028258;28;20630;-71
2023/11/30 13:44:59;;;;;;;8.23;7.43;;;0.40;99.90;;;;;;5026157;28;20215;-72
2023/11/30 13:47:26;;;;;;;10.48;6.13;;;0.50;99.90;;;;;;5030725;28;20213;-72
2023/11/30 13:49:55;;;;;;;4.70;4.30;;;0.50;99.90;;;;;;5030282;28;20205;-72
2023/11/30 13:52:22;;;;;;;4.68;4.28;;;0.50;99.90;;;;;;5028249;28;20710;-72
2023/11/30 13:54:49;;;;;;;4.93;3.97;;;0.60;99.90;;;;;;5030659;28;20203;-72
2023/11/30 13:57:16;;;;;;;4.45;3.70;;;0.60;99.90;;;;;;5027772;28;20203;-72
2023/11/30 13:59:43;;;;;;;4.18;3.72;;;0.60;99.90;;;;;;5028124;28;20242;-72
2023/11/30 14:02:09;;;;;;;5.57;4.15;;;0.60;99.90;;;;;;5022106;28;20300;-72
2023/11/30 14:04:36;;;;;;;4.70;3.00;;;0.60;99.90;;;;;;5033750;28;20213;-72
2023/11/30 14:07:04;;;;;;;7.00;6.15;;;0.60;99.90;;;;;;5019146;28;20218;-72
2023/11/30 14:09:31;;;;;;;9.80;7.10;;;0.60;99.90;;;;;;5027171;28;20198;-72
2023/11/30 14:11:58;;;;;;;11.50;8.73;;;0.60;99.90;;;;;;5029475;28;20222;-72
2023/11/30 14:14:26;;;;;;;6.18;4.50;;;0.50;99.90;;;;;;5021491;28;20218;-72
2023/11/30 14:16:53;;;;;;;3.58;3.35;;;0.50;99.90;;;;;;5031084;28;20686;-72
2023/11/30 14:19:20;;;;;;;4.72;3.10;;;0.30;99.90;;;;;;5029888;28;20206;-72
2023/11/30 14:21:46;;;;;;;4.18;3.03;;;0.20;99.90;;;;;;5029867;28;20300;-72
2023/11/30 14:24:15;;;;;;;5.63;3.67;;;0.10;99.90;;;;;;5030057;28;20202;-72
2023/11/30 14:26:42;;;;;;;3.17;2.97;;;0.10;99.90;;;;;;5028753;28;20241;-72
2023/11/30 14:29:08;;;;;;;2.55;2.35;;;0.10;99.90;;;;;;5032497;28;20210;-73
2023/11/30 14:31:35;;;;;;;5.63;2.85;;;0.00;99.90;;;;;;5023418;28;20244;-72
2023/11/30 14:34:02;;;;;;;3.15;2.88;;;0.10;99.90;;;;;;5030579;28;20214;-72
2023/11/30 14:36:29;;;;;;;3.15;2.95;;;0.10;99.90;;;;;;5030898;28;20207;-72
2023/11/30 14:38:57;;;;;;;3.63;3.38;;;0.20;99.90;;;;;;5028675;28;20246;-72
2023/11/30 14:41:25;;;;;;;3.97;3.33;;;0.20;99.90;;;;;;5026427;28;20226;-72
2023/11/30 14:43:52;;;;;;;6.43;3.85;;;0.20;99.90;;;;;;5027618;28;20203;-72
2023/11/30 14:46:19;;;;;;;4.75;4.32;;;0.20;99.90;;;;;;5022263;28;20213;-72
2023/11/30 14:48:45;;;;;;;6.82;6.03;;;0.20;99.90;;;;;;5030094;28;20286;-72
2023/11/30 14:51:14;;;;;;;3.28;2.97;;;0.30;99.90;;;;;;5020632;28;20233;-72
2023/11/30 14:53:41;;;;;;;3.35;2.97;;;0.20;99.90;;;;;;5027601;28;20214;-72
2023/11/30 14:56:09;;;;;;;4.03;3.83;;;0.20;99.90;;;;;;5028509;28;20203;-72
2023/11/30 14:58:37;;;;;;;5.00;3.88;;;0.20;99.90;;;;;;5028484;28;20209;-72
2023/11/30 15:01:06;;;;;;;4.65;4.03;;;0.10;99.90;;;;;;5025676;28;20248;-72
2023/11/30 15:03:33;;;;;;;3.22;3.03;;;0.10;99.90;;;;;;5025409;28;20203;-69
2023/11/30 15:06:00;;;;;;;3.50;3.30;;;0.10;99.90;;;;;;5023776;28;20238;-71
2023/11/30 15:08:26;;;;;;;4.05;3.75;;;0.10;99.90;;;;;;5025597;28;20229;-70
2023/11/30 15:10:53;;;;;;;3.20;3.00;;;0.20;99.90;;;;;;5029136;28;20237;-71
2023/11/30 15:13:20;;;;;;;3.28;2.95;;;0.10;99.90;;;;;;5029977;28;20209;-71
2023/11/30 15:15:48;;;;;;;5.90;4.55;;;0.10;99.90;;;;;;5029292;28;20194;-71
2023/11/30 15:18:15;;;;;;;4.28;3.92;;;0.00;99.90;;;;;;5022968;28;20600;-71
2023/11/30 15:20:42;;;;;;;3.58;3.33;;;0.00;99.90;;;;;;5028740;28;20230;-71
2023/11/30 15:23:08;;;;;;;4.00;3.42;;;0.00;99.90;;;;;;5029476;28;20565;-71
2023/11/30 15:25:35;;;;;;;7.43;5.20;;;0.00;99.90;;;;;;5029150;28;20207;-71
2023/11/30 15:28:03;;;;;;;4.05;3.65;;;-0.10;99.90;;;;;;5028789;28;20218;-71
2023/11/30 15:30:30;;;;;;;2.90;2.80;;;-0.10;99.90;;;;;;5029471;28;20610;-73
2023/11/30 15:32:58;;;;;;;3.95;3.65;;;0.00;99.90;;;;;;5028642;28;20213;-73
2023/11/30 15:35:25;;;;;;;3.70;3.28;;;0.00;99.90;;;;;;5021542;28;20211;-73
2023/11/30 15:37:52;;;;;;;3.53;3.28;;;0.10;99.90;;;;;;5026944;28;20234;-72
2023/11/30 15:40:20;;;;;;;6.07;4.07;;;0.10;99.90;;;;;;5023454;28;20603;-72
2023/11/30 15:42:47;;;;;;;5.40;3.10;;;0.10;99.90;;;;;;5026453;28;20268;-72
2023/11/30 15:45:16;;;;;;;3.38;3.17;;;0.10;99.90;;;;;;5026625;28;20207;-72
2023/11/30 15:47:43;;;;;;;4.78;4.38;;;0.10;99.90;;;;;;5023857;28;20502;-72
2023/11/30 15:50:11;;;;;;;4.53;4.13;;;0.10;99.90;;;;;;5030535;28;20206;-73
2023/11/30 15:52:38;;;;;;;3.25;2.95;;;0.10;99.90;;;;;;5016892;28;20223;-73
2023/11/30 15:55:10;;;;;;;6.10;5.50;;;0.10;99.90;;;;;;5020410;28;20466;-72
2023/11/30 15:57:37;;;;;;;7.22;4.38;;;0.20;99.90;;;;;;5022174;28;20207;-72
2023/11/30 16:00:07;;;;;;;7.55;6.20;;;0.20;99.90;;;;;;5026535;28;20230;-73
2023/11/30 16:02:34;;;;;;;3.60;2.88;;;0.20;99.90;;;;;;5027685;28;20312;-72
2023/11/30 16:05:00;;;;;;;6.65;4.10;;;0.20;99.90;;;;;;5028134;28;20218;-73
2023/11/30 16:07:28;;;;;;;4.07;3.67;;;0.30;99.90;;;;;;5027235;28;20606;-74
2023/11/30 16:09:55;;;;;;;3.33;3.03;;;0.20;99.90;;;;;;5029414;28;20198;-74
2023/11/30 16:12:22;;;;;;;4.50;4.10;;;0.20;99.90;;;;;;5032308;28;20229;-73
2023/11/30 16:14:49;;;;;;;8.23;5.68;;;0.20;99.90;;;;;;5033757;28;20202;-72
2023/11/30 16:17:15;;;;;;;8.75;6.85;;;0.20;99.90;;;;;;5032478;28;20217;-74
2023/11/30 16:19:42;;;;;;;5.88;3.58;;;0.20;99.90;;;;;;5032989;28;20207;-73
2023/11/30 16:22:09;;;;;;;8.20;6.30;;;0.20;99.90;;;;;;5035806;28;21444;-73
2023/11/30 16:24:37;;;;;;;7.47;4.97;;;0.20;99.90;;;;;;5034301;28;20212;-74
2023/11/30 16:27:04;;;;;;;18.08;11.85;;;0.20;99.90;;;;;;5035888;28;20218;-73
2023/11/30 16:29:32;;;;;;;7.78;6.30;;;0.20;99.90;;;;;;5032847;28;20592;-74
2023/11/30 16:31:59;;;;;;;13.35;9.18;;;0.20;99.90;;;;;;5035000;28;20312;-73
2023/11/30 16:34:30;;;;;;;12.82;8.10;;;0.20;99.90;;;;;;5026849;28;20210;-73
2023/11/30 16:36:58;;;;;;;11.00;8.23;;;0.20;99.90;;;;;;5033293;28;20660;-73
2023/11/30 16:39:25;;;;;;;7.38;6.68;;;0.20;99.90;;;;;;5031327;28;20297;-73
2023/11/30 16:41:55;;;;;;;11.15;7.75;;;0.20;99.90;;;;;;5029199;28;20234;-74
2023/11/30 16:44:22;;;;;;;4.82;4.13;;;0.20;99.90;;;;;;5028365;28;20585;-73
2023/11/30 16:46:50;;;;;;;8.75;7.43;;;0.20;99.90;;;;;;5028095;28;20739;-72
2023/11/30 16:49:17;;;;;;;7.25;4.78;;;0.20;99.90;;;;;;5034160;28;20681;-73
2023/11/30 16:51:44;;;;;;;4.53;4.15;;;0.20;99.90;;;;;;5034888;28;20321;-74
2023/11/30 16:54:10;;;;;;;5.85;3.97;;;0.20;99.90;;;;;;5031869;28;20206;-73
2023/11/30 16:56:39;;;;;;;12.10;8.18;;;0.20;99.90;;;;;;5021200;28;20203;-74
2023/11/30 16:59:07;;;;;;;16.63;10.45;;;0.20;99.90;;;;;;5023894;28;20206;-73
2023/11/30 17:01:36;;;;;;;17.85;10.25;;;0.20;99.90;;;;;;5031825;28;20231;-73
2023/11/30 17:04:03;;;;;;;17.50;11.52;;;0.20;99.90;;;;;;5021783;28;20257;-72
2023/11/30 17:06:30;;;;;;;4.20;3.90;;;0.20;99.90;;;;;;5026763;28;20230;-73
2023/11/30 17:08:57;;;;;;;5.03;3.67;;;0.10;99.90;;;;;;5017961;28;20210;-73
2023/11/30 17:11:24;;;;;;;2.08;1.95;;;0.10;99.90;;;;;;5017577;28;20670;-73
2023/11/30 17:13:51;;;;;;;5.95;3.72;;;-0.10;99.90;;;;;;5024033;28;20217;-73
2023/11/30 17:16:19;;;;;;;3.25;3.00;;;0.00;99.90;;;;;;5032088;28;20213;-72
2023/11/30 17:18:46;;;;;;;2.70;2.50;;;-0.10;99.90;;;;;;5026871;28;20210;-74
2023/11/30 17:21:13;;;;;;;6.72;4.07;;;-0.10;99.90;;;;;;5031985;28;20238;-73
2023/11/30 17:23:43;;;;;;;2.75;2.63;;;-0.20;99.90;;;;;;5026536;28;20203;-73
2023/11/30 17:26:10;;;;;;;4.57;4.28;;;-0.30;99.90;;;;;;5018988;28;20203;-73
2023/11/30 17:28:37;;;;;;;2.97;2.58;;;-0.30;99.90;;;;;;5024047;28;20199;-73
2023/11/30 17:31:04;;;;;;;9.48;4.97;;;-0.30;99.90;;;;;;5026822;28;20711;-74
2023/11/30 17:33:33;;;;;;;2.97;2.65;;;-0.20;99.90;;;;;;5026367;28;20203;-73
2023/11/30 17:35:59;;;;;;;4.10;3.80;;;-0.20;99.90;;;;;;5030609;28;20226;-73
2023/11/30 17:38:26;;;;;;;3.00;2.38;;;-0.20;99.90;;;;;;5026628;28;20290;-74
2023/11/30 17:40:53;;;;;;;3.25;3.05;;;-0.30;99.90;;;;;;5022768;28;20265;-73
2023/11/30 17:43:23;;;;;;;3.85;3.55;;;-0.30;99.90;;;;;;5022358;28;20238;-73
2023/11/30 17:45:50;;;;;;;3.55;3.35;;;-0.20;99.90;;;;;;5024333;28;20199;-73
2023/11/30 17:48:16;;;;;;;2.90;2.80;;;-0.20;99.90;;;;;;5022061;28;20610;-73
2023/11/30 17:50:45;;;;;;;2.75;2.60;;;-0.10;99.90;;;;;;5028219;28;20226;-73
2023/11/30 17:53:11;;;;;;;4.05;3.70;;;-0.10;99.90;;;;;;5030239;28;20249;-73
2023/11/30 17:55:38;;;;;;;3.90;3.58;;;-0.20;99.90;;;;;;5023836;28;20213;-72
2023/11/30 17:58:05;;;;;;;1.30;1.30;;;-0.20;99.90;;;;;;5019235;28;20210;-73